Alton, Missouri
Current Conditions -  °F | °C
As of 1:53 PM on Monday 22 Dec 2014 (Local Time) from KUNO Reporting Station
Overcast Overcast  
Wind Chill: 44°   Ceiling: 300
Heat Index: 48°   Visibility: 8mi
Dew Point: 46°   Wind: 8mph
Humidity: 93%   Direction: 180°S
Pressure: 29.54"   Gusts: NA
Location:  36.69°N, 91.4°W
Report Text: KUNO 221953Z AUTO 18007KT 8SM OVC003 09/08 A2954 RMK AO2 SLP005 T00890078
Loading
Personal Weather Stations






























Interactive Weather Map New forecast layout! Learn more

10-Day Weather Forecast

Advertisements
Track Severe Weather on mobile